Time;durP1;ratioP1;P1;durP2;ratioP2;P2;SDS_P1;SDS_P2;PMS_P1;PMS_P2;Temp;Humidity;BMP_temperature;BMP_pressure;BME280_temperature;BME280_humidity;BME280_pressure;Samples;Min_cycle;Max_cycle;Signal;HPM_P1;HPM_P2
2023/06/23 00:03:33;;;;;;;6.10;4.57;;;22.50;1.00;;;;;;8268566;28;20300;-67
2023/06/23 00:07:35;;;;;;;5.73;4.30;;;22.50;1.00;;;;;;8269581;28;20191;-68
2023/06/23 00:11:36;;;;;;;6.10;4.50;;;22.40;1.00;;;;;;8270411;28;20202;-67
2023/06/23 00:15:37;;;;;;;4.87;4.40;;;22.40;1.00;;;;;;8269154;28;20194;-69
2023/06/23 00:19:38;;;;;;;6.53;4.63;;;22.40;1.00;;;;;;8268219;28;20223;-68
2023/06/23 00:23:39;;;;;;;5.83;4.77;;;22.30;1.00;;;;;;8270169;28;20262;-65
2023/06/23 00:27:41;;;;;;;7.53;5.23;;;22.30;1.00;;;;;;8270393;28;20205;-67
2023/06/23 00:31:43;;;;;;;5.63;5.10;;;22.40;1.00;;;;;;8266206;28;20199;-67
2023/06/23 00:35:44;;;;;;;7.00;4.83;;;22.30;1.00;;;;;;8270879;28;20192;-68
2023/06/23 00:39:44;;;;;;;5.83;4.70;;;22.30;1.00;;;;;;8267308;28;20238;-65
2023/06/23 00:43:50;;;;;;;4.73;4.30;;;22.30;1.00;;;;;;8268792;28;20245;-67
2023/06/23 00:47:51;;;;;;;5.20;4.60;;;22.20;1.00;;;;;;8265678;28;20477;-67
2023/06/23 00:51:53;;;;;;;5.97;5.17;;;22.20;1.00;;;;;;8271123;28;20195;-65
2023/06/23 01:16:27;;;;;;;16.17;11.73;;;20.10;99.90;;;;;;8268199;28;20194;-64
2023/06/23 01:20:33;;;;;;;14.90;11.90;;;19.60;99.90;;;;;;8264585;28;20216;-65
2023/06/23 01:24:47;;;;;;;13.40;11.10;;;19.50;99.90;;;;;;8269363;28;20237;-68
2023/06/23 01:28:49;;;;;;;13.13;9.97;;;19.30;1.00;;;;;;8267583;28;20191;-62
2023/06/23 01:32:59;;;;;;;15.77;9.53;;;19.20;99.90;;;;;;8269735;28;20183;-63
2023/06/23 01:37:15;;;;;;;14.27;9.90;;;19.00;99.90;;;;;;8279395;28;20187;-61
2023/06/23 01:41:26;;;;;;;12.33;9.50;;;18.90;1.00;;;;;;8270832;28;20196;-62
2023/06/23 01:45:29;;;;;;;13.07;9.50;;;18.90;1.00;;;;;;8265410;28;20208;-63
2023/06/23 01:49:36;;;;;;;12.57;8.30;;;18.80;99.90;;;;;;8268527;28;20194;-64
2023/06/23 01:53:38;;;;;;;10.30;7.17;;;18.80;99.90;;;;;;8265951;28;20198;-62
2023/06/23 01:57:45;;;;;;;10.73;8.03;;;18.70;99.90;;;;;;8265583;28;20290;-62
2023/06/23 02:01:47;;;;;;;8.97;7.17;;;18.60;99.90;;;;;;8264593;28;20194;-62
2023/06/23 02:05:51;;;;;;;12.57;7.10;;;18.50;99.90;;;;;;8265612;28;20205;-62
2023/06/23 02:09:53;;;;;;;7.83;5.80;;;18.50;99.90;;;;;;8265397;28;20191;-62
2023/06/23 02:13:57;;;;;;;7.63;6.17;;;18.40;99.90;;;;;;8264740;28;20315;-61
2023/06/23 02:18:03;;;;;;;11.63;5.73;;;18.40;99.90;;;;;;8251147;28;20278;-62
2023/06/23 02:22:11;;;;;;;6.23;5.17;;;18.40;99.90;;;;;;8261563;28;20207;-63
2023/06/23 02:26:19;;;;;;;7.30;5.67;;;18.50;99.90;;;;;;8269355;28;20199;-62
2023/06/23 02:30:22;;;;;;;10.87;6.50;;;18.50;99.90;;;;;;8267083;28;20274;-62
2023/06/23 02:34:26;;;;;;;9.63;6.07;;;18.40;99.90;;;;;;8261630;28;20234;-62
2023/06/23 02:38:30;;;;;;;7.40;5.33;;;18.40;99.90;;;;;;8277887;28;20212;-63
2023/06/23 02:42:34;;;;;;;8.63;5.50;;;18.40;99.90;;;;;;8263817;28;20285;-62
2023/06/23 02:46:40;;;;;;;8.60;6.20;;;18.50;99.90;;;;;;8264294;28;20180;-61
2023/06/23 02:50:43;;;;;;;7.80;6.97;;;18.50;99.90;;;;;;8260256;28;20192;-64
2023/06/23 02:54:50;;;;;;;8.33;6.17;;;18.60;99.90;;;;;;8270005;28;20191;-61
2023/06/23 02:58:56;;;;;;;10.50;5.97;;;18.60;99.90;;;;;;8259126;28;20215;-63
2023/06/23 03:03:00;;;;;;;11.37;6.03;;;18.70;99.90;;;;;;8269965;28;20207;-65
2023/06/23 03:07:05;;;;;;;8.13;6.47;;;18.70;99.90;;;;;;8267350;28;20192;-64
2023/06/23 03:11:06;;;;;;;9.90;7.00;;;18.70;99.90;;;;;;8285490;28;20184;-64
2023/06/23 03:15:07;;;;;;;10.80;7.80;;;18.60;99.90;;;;;;8273617;28;20203;-66
2023/06/23 03:19:29;;;;;;;11.87;6.57;;;18.60;99.90;;;;;;8268526;28;20246;-64
2023/06/23 03:23:32;;;;;;;7.33;6.03;;;18.60;99.90;;;;;;8268843;28;20195;-66
2023/06/23 03:27:36;;;;;;;8.60;6.23;;;18.60;99.90;;;;;;8267866;28;20192;-64
2023/06/23 03:31:42;;;;;;;9.70;7.43;;;18.50;99.90;;;;;;8275006;28;20222;-64
2023/06/23 03:35:46;;;;;;;11.73;8.67;;;18.50;99.90;;;;;;8268805;28;20211;-65
2023/06/23 03:39:54;;;;;;;11.47;8.67;;;18.50;99.90;;;;;;8277122;28;20223;-65
2023/06/23 03:43:59;;;;;;;10.13;8.60;;;18.50;99.90;;;;;;8273944;28;20298;-66
2023/06/23 03:48:03;;;;;;;9.33;7.90;;;18.50;99.90;;;;;;8263500;28;20199;-64
2023/06/23 03:52:07;;;;;;;11.43;9.83;;;18.60;99.90;;;;;;8273062;28;20190;-64
2023/06/23 03:56:11;;;;;;;12.70;9.07;;;18.60;99.90;;;;;;8273034;28;20192;-64
2023/06/23 04:00:13;;;;;;;8.80;8.00;;;18.60;99.90;;;;;;8269074;28;20259;-65
2023/06/23 04:04:16;;;;;;;9.20;8.10;;;18.60;99.90;;;;;;8273475;28;20257;-66
2023/06/23 04:08:19;;;;;;;10.17;9.17;;;18.70;99.90;;;;;;8268771;28;20203;-64
2023/06/23 04:12:22;;;;;;;8.80;7.90;;;18.80;99.90;;;;;;8269947;28;20187;-63
2023/06/23 04:16:25;;;;;;;10.27;9.00;;;18.90;99.90;;;;;;8271503;28;20192;-64
2023/06/23 04:20:26;;;;;;;10.73;9.67;;;19.10;99.90;;;;;;8281856;28;20254;-64
2023/06/23 04:24:30;;;;;;;11.73;10.50;;;19.00;99.90;;;;;;8267132;28;20330;-64
2023/06/23 04:28:33;;;;;;;13.30;9.97;;;18.90;99.90;;;;;;8270343;28;20211;-66
2023/06/23 04:32:37;;;;;;;14.47;11.33;;;18.80;99.90;;;;;;8270871;28;20187;-65
2023/06/23 04:36:44;;;;;;;12.53;11.23;;;18.70;99.90;;;;;;8268752;28;20194;-64
2023/06/23 04:40:53;;;;;;;12.97;11.63;;;18.70;99.90;;;;;;8285477;28;20208;-65
2023/06/23 04:44:59;;;;;;;16.57;12.13;;;18.50;99.90;;;;;;8267292;28;20183;-65
2023/06/23 04:49:10;;;;;;;18.67;12.90;;;18.50;99.90;;;;;;8267663;28;20219;-65
2023/06/23 04:53:20;;;;;;;15.50;11.93;;;18.40;99.90;;;;;;8272645;28;20190;-65
2023/06/23 04:57:27;;;;;;;15.20;11.53;;;18.40;99.90;;;;;;8265983;28;20238;-67
2023/06/23 05:01:30;;;;;;;13.00;11.23;;;18.40;99.90;;;;;;8266238;28;20297;-65
2023/06/23 05:05:36;;;;;;;14.17;12.77;;;18.50;99.90;;;;;;8270958;28;20204;-64
2023/06/23 05:09:39;;;;;;;15.30;12.00;;;18.40;99.90;;;;;;8269217;28;20202;-66
2023/06/23 05:13:42;;;;;;;14.07;12.57;;;18.30;99.90;;;;;;8268231;28;20183;-64
2023/06/23 05:17:46;;;;;;;17.33;13.87;;;18.20;99.90;;;;;;8266432;28;20208;-67
2023/06/23 05:21:51;;;;;;;17.90;13.40;;;18.20;99.90;;;;;;8282735;28;20286;-65
2023/06/23 05:25:56;;;;;;;20.87;16.30;;;18.20;99.90;;;;;;8267254;28;20191;-65
2023/06/23 05:29:59;;;;;;;22.93;15.00;;;18.20;99.90;;;;;;8266789;28;20192;-65
2023/06/23 05:34:10;;;;;;;20.23;15.53;;;18.10;99.90;;;;;;8269235;28;20180;-66
2023/06/23 05:38:12;;;;;;;24.43;17.57;;;18.10;99.90;;;;;;8264634;28;20211;-67
2023/06/23 05:42:13;;;;;;;21.37;16.00;;;18.20;99.90;;;;;;8264368;28;20265;-64
2023/06/23 05:46:16;;;;;;;24.47;16.77;;;18.20;99.90;;;;;;8269384;28;20191;-66
2023/06/23 05:50:23;;;;;;;17.73;15.73;;;18.20;99.90;;;;;;8261934;28;20191;-64
2023/06/23 05:54:28;;;;;;;17.83;15.93;;;18.30;99.90;;;;;;8265028;28;20179;-67
2023/06/23 05:58:34;;;;;;;20.77;14.97;;;18.40;99.90;;;;;;8270949;28;20219;-67
2023/06/23 06:02:38;;;;;;;25.10;16.10;;;18.50;99.90;;;;;;8277807;28;20183;-68
2023/06/23 06:06:40;;;;;;;19.77;17.27;;;18.50;99.90;;;;;;8266457;28;20286;-66
2023/06/23 06:10:43;;;;;;;18.97;16.53;;;18.70;99.90;;;;;;8264268;28;20207;-65
2023/06/23 06:14:45;;;;;;;19.57;15.47;;;18.70;99.90;;;;;;8266226;28;20198;-65
2023/06/23 06:18:49;;;;;;;18.03;16.13;;;18.80;99.90;;;;;;8266737;28;20199;-65
2023/06/23 06:22:52;;;;;;;19.30;14.80;;;19.00;99.90;;;;;;8266020;28;20214;-67
2023/06/23 06:26:56;;;;;;;19.10;15.60;;;19.30;99.90;;;;;;8253107;28;20199;-66
2023/06/23 06:30:59;;;;;;;17.53;14.30;;;19.50;69.00;;;;;;8270139;28;20191;-68
2023/06/23 06:35:05;;;;;;;17.87;14.73;;;19.60;1.00;;;;;;8273032;28;20293;-65
2023/06/23 06:39:06;;;;;;;16.07;14.37;;;19.80;1.00;;;;;;8273270;28;20218;-66
2023/06/23 06:43:07;;;;;;;18.13;14.17;;;20.00;1.00;;;;;;8272513;28;20242;-66
2023/06/23 06:47:12;;;;;;;15.10;13.63;;;20.10;1.00;;;;;;8272490;28;20187;-67
2023/06/23 06:51:17;;;;;;;18.13;14.37;;;20.40;85.80;;;;;;8269354;28;20194;-66
2023/06/23 06:55:20;;;;;;;16.03;14.33;;;21.00;99.90;;;;;;8269898;28;20187;-67
2023/06/23 06:59:24;;;;;;;15.30;13.70;;;21.70;99.90;;;;;;8283608;28;20223;-66
2023/06/23 07:03:32;;;;;;;16.20;14.50;;;22.00;99.90;;;;;;8269257;28;20210;-66
2023/06/23 07:07:33;;;;;;;15.33;13.30;;;21.90;17.70;;;;;;8269231;28;20192;-65
2023/06/23 07:11:35;;;;;;;15.23;13.73;;;21.70;99.90;;;;;;8274988;28;20207;-66
2023/06/23 07:15:36;;;;;;;15.67;14.03;;;22.20;99.90;;;;;;8273005;28;20191;-66
2023/06/23 07:19:38;;;;;;;16.00;14.43;;;22.40;54.40;;;;;;8273683;28;20211;-66
2023/06/23 07:23:39;;;;;;;14.03;12.60;;;22.40;99.90;;;;;;8266054;28;20179;-66
2023/06/23 07:27:47;;;;;;;13.73;12.40;;;22.30;99.90;;;;;;8267693;28;20198;-68
2023/06/23 07:31:50;;;;;;;13.57;12.27;;;22.40;99.90;;;;;;8312233;28;20233;-67
2023/06/23 07:35:56;;;;;;;12.07;10.97;;;22.40;99.90;;;;;;8313406;28;20258;-65
2023/06/23 07:39:57;;;;;;;14.30;11.00;;;22.70;99.90;;;;;;8313402;28;20325;-67
2023/06/23 07:43:58;;;;;;;13.07;10.87;;;22.90;52.60;;;;;;8322312;28;20187;-66
2023/06/23 07:47:59;;;;;;;11.73;10.70;;;23.40;1.00;;;;;;8298980;28;20185;-66
2023/06/23 07:52:08;;;;;;;10.87;8.17;;;23.50;1.00;;;;;;8311096;28;20197;-68
2023/06/23 07:56:12;;;;;;;11.07;9.87;;;24.00;1.00;;;;;;8312906;28;20190;-67
2023/06/23 08:00:18;;;;;;;10.93;9.80;;;24.30;99.90;;;;;;8315117;28;20300;-67
2023/06/23 08:04:20;;;;;;;11.80;9.90;;;24.30;99.90;;;;;;8269213;28;20284;-68
2023/06/23 08:08:21;;;;;;;12.80;9.67;;;24.30;99.90;;;;;;8256089;28;20188;-69
2023/06/23 08:12:22;;;;;;;9.33;8.07;;;24.30;1.00;;;;;;8269211;28;20199;-69
2023/06/23 08:16:23;;;;;;;11.63;8.10;;;24.80;1.00;;;;;;8267523;28;20196;-67
2023/06/23 08:20:24;;;;;;;7.47;6.63;;;25.40;99.90;;;;;;8268326;28;20289;-68
2023/06/23 08:24:25;;;;;;;7.87;7.07;;;25.60;99.90;;;;;;8271951;28;20179;-67
2023/06/23 08:28:28;;;;;;;7.17;6.50;;;25.50;99.90;;;;;;8268530;28;20219;-67
2023/06/23 08:32:29;;;;;;;10.57;6.80;;;25.30;99.90;;;;;;8266902;28;20202;-67
2023/06/23 08:36:30;;;;;;;9.50;6.87;;;25.20;99.90;;;;;;8267175;28;20276;-67
2023/06/23 08:40:31;;;;;;;10.53;6.13;;;25.30;99.90;;;;;;8267159;28;20374;-64
2023/06/23 08:44:35;;;;;;;6.73;5.40;;;25.40;99.90;;;;;;8268408;28;20190;-66
2023/06/23 08:48:38;;;;;;;7.50;5.90;;;25.40;99.90;;;;;;8262666;28;20199;-68
2023/06/23 08:52:38;;;;;;;7.90;5.50;;;25.80;99.90;;;;;;8264394;28;20183;-66
2023/06/23 08:56:42;;;;;;;6.15;4.35;;;26.00;99.90;;;;;;8266006;28;20188;-67
2023/06/23 09:00:49;;;;;;;8.60;4.27;;;25.60;99.90;;;;;;8269784;28;20218;-67
2023/06/23 09:04:53;;;;;;;5.80;4.30;;;25.40;99.90;;;;;;8270370;28;20261;-66
2023/06/23 09:08:56;;;;;;;7.67;4.97;;;25.50;99.90;;;;;;8273936;28;20203;-66
2023/06/23 09:13:51;;;;;;;7.27;5.03;;;25.80;99.90;;;;;;8265447;28;20188;-67
2023/06/23 09:17:56;;;;;;;5.25;4.13;;;25.90;99.90;;;;;;8257556;28;20216;-66
2023/06/23 09:21:57;;;;;;;3.45;2.78;;;26.20;99.90;;;;;;8266111;28;20215;-67
2023/06/23 09:25:58;;;;;;;4.70;2.65;;;26.00;21.00;;;;;;8272269;28;20192;-66
2023/06/23 09:30:00;;;;;;;4.23;2.50;;;26.00;27.50;;;;;;8265014;28;20199;-68
2023/06/23 09:34:01;;;;;;;4.70;2.92;;;25.60;29.30;;;;;;8267033;28;20184;-67
2023/06/23 09:38:02;;;;;;;3.57;2.50;;;25.40;6.90;;;;;;8266888;28;20218;-67
2023/06/23 09:42:12;;;;;;;2.90;2.00;;;25.20;27.70;;;;;;8269977;28;20195;-67
2023/06/23 09:46:24;;;;;;;4.37;1.80;;;25.20;8.10;;;;;;8270477;28;20208;-69
2023/06/23 09:50:27;;;;;;;4.53;1.80;;;25.40;1.00;;;;;;8260119;28;20204;-67
2023/06/23 09:54:41;;;;;;;5.73;2.00;;;26.00;1.10;;;;;;8271930;28;20200;-67
2023/06/23 09:58:46;;;;;;;3.22;2.20;;;26.40;1.00;;;;;;8262793;28;20236;-66
2023/06/23 10:02:48;;;;;;;2.03;1.83;;;26.50;1.00;;;;;;8281131;28;20218;-66
2023/06/23 10:06:49;;;;;;;2.22;1.80;;;26.00;1.00;;;;;;8276321;28;20191;-69
2023/06/23 10:10:50;;;;;;;3.20;1.45;;;26.10;1.00;;;;;;8261770;28;20190;-68
2023/06/23 10:14:59;;;;;;;1.75;1.50;;;26.50;1.00;;;;;;8253839;28;20191;-67
2023/06/23 10:19:01;;;;;;;4.10;1.50;;;26.50;1.00;;;;;;8271323;28;20325;-66
2023/06/23 10:23:02;;;;;;;3.33;1.80;;;26.40;1.00;;;;;;8263372;28;20183;-66
2023/06/23 10:27:05;;;;;;;2.45;2.03;;;26.10;1.00;;;;;;8278546;28;20269;-66
2023/06/23 10:31:07;;;;;;;4.07;2.25;;;26.40;1.00;;;;;;8263486;28;20238;-68
2023/06/23 10:35:12;;;;;;;2.35;2.13;;;26.70;1.00;;;;;;8262230;28;20269;-66
2023/06/23 10:39:14;;;;;;;3.55;2.20;;;26.90;1.00;;;;;;8266468;28;20269;-69
2023/06/23 10:43:18;;;;;;;3.92;2.30;;;27.30;1.00;;;;;;8266076;28;20227;-66
2023/06/23 10:47:19;;;;;;;3.22;1.98;;;27.30;1.00;;;;;;8264648;28;20183;-66
2023/06/23 10:51:21;;;;;;;3.30;1.90;;;27.30;1.00;;;;;;8262876;28;20197;-66
2023/06/23 10:55:42;;;;;;;2.50;1.65;;;27.50;1.00;;;;;;8267641;28;20183;-66
2023/06/23 10:59:57;;;;;;;1.90;1.63;;;27.20;1.00;;;;;;8268339;28;20214;-66
2023/06/23 11:04:04;;;;;;;3.15;1.90;;;27.20;1.00;;;;;;8261798;28;20194;-66
2023/06/23 11:08:10;;;;;;;2.55;1.70;;;27.60;1.00;;;;;;8266053;28;20191;-64
2023/06/23 11:12:33;;;;;;;3.40;1.73;;;28.00;1.00;;;;;;8261685;28;20214;-66
2023/06/23 11:16:40;;;;;;;2.50;2.30;;;28.20;1.00;;;;;;8264023;28;20194;-66
2023/06/23 11:20:44;;;;;;;5.70;2.60;;;27.70;1.00;;;;;;8275030;28;20297;-69
2023/06/23 11:24:54;;;;;;;6.72;2.85;;;27.20;1.00;;;;;;8266278;28;20215;-66
2023/06/23 11:28:55;;;;;;;4.60;2.55;;;26.60;1.00;;;;;;8270041;28;20194;-66
2023/06/23 11:33:25;;;;;;;4.72;2.97;;;26.40;1.00;;;;;;8268679;28;20188;-67
2023/06/23 11:37:31;;;;;;;4.88;3.10;;;26.60;1.00;;;;;;8266936;28;20184;-66
2023/06/23 11:41:32;;;;;;;3.80;2.65;;;26.60;1.00;;;;;;8286191;28;20202;-69
2023/06/23 11:45:33;;;;;;;2.67;2.47;;;27.10;1.00;;;;;;8268837;28;20366;-67
2023/06/23 11:49:36;;;;;;;3.70;3.40;;;27.60;1.00;;;;;;8271418;28;20194;-67
2023/06/23 11:53:40;;;;;;;7.05;3.72;;;28.00;1.00;;;;;;8268316;28;20192;-66
2023/06/23 11:57:44;;;;;;;4.43;3.60;;;28.10;1.00;;;;;;8267531;28;20226;-66
2023/06/23 12:01:45;;;;;;;4.05;3.35;;;28.20;1.00;;;;;;8267520;28;20202;-67
2023/06/23 12:05:46;;;;;;;3.88;2.97;;;28.00;1.00;;;;;;8268681;28;20204;-67
2023/06/23 12:09:47;;;;;;;6.50;3.10;;;27.70;1.00;;;;;;8270093;28;20195;-68
2023/06/23 12:13:52;;;;;;;3.45;2.97;;;27.90;1.00;;;;;;8266770;28;20190;-66
2023/06/23 12:17:57;;;;;;;3.85;3.50;;;27.80;1.00;;;;;;8270199;28;20219;-67
2023/06/23 12:21:58;;;;;;;6.35;3.70;;;27.90;1.00;;;;;;8272212;28;20190;-67
2023/06/23 12:25:59;;;;;;;3.55;3.03;;;27.90;1.00;;;;;;8269678;28;20283;-67
2023/06/23 12:30:21;;;;;;;4.32;3.83;;;28.00;1.00;;;;;;8274175;28;20214;-67
2023/06/23 12:34:28;;;;;;;3.88;3.50;;;28.00;1.00;;;;;;8269910;28;20183;-67
2023/06/23 12:38:31;;;;;;;3.50;3.20;;;28.20;1.00;;;;;;8263258;28;20238;-67
2023/06/23 12:42:36;;;;;;;4.07;3.67;;;29.00;1.00;;;;;;8268104;28;20204;-68
2023/06/23 12:46:37;;;;;;;4.30;3.90;;;28.60;1.00;;;;;;8270538;28;20188;-67
2023/06/23 12:50:42;;;;;;;6.07;4.05;;;27.30;1.00;;;;;;8284841;28;20192;-66
2023/06/23 12:54:43;;;;;;;4.93;3.90;;;26.90;27.40;;;;;;8268860;28;20188;-67
2023/06/23 12:58:44;;;;;;;4.13;3.72;;;26.90;31.40;;;;;;8267631;28;20219;-66
2023/06/23 13:02:50;;;;;;;5.28;4.10;;;27.00;34.40;;;;;;8270560;28;20215;-66
2023/06/23 13:06:51;;;;;;;6.50;4.15;;;27.30;1.00;;;;;;8269988;28;20202;-67
2023/06/23 13:10:52;;;;;;;5.47;4.93;;;26.70;45.10;;;;;;8266225;28;20187;-67
2023/06/23 13:14:53;;;;;;;5.20;4.53;;;26.00;99.70;;;;;;8268807;28;20210;-67
2023/06/23 13:18:54;;;;;;;4.50;4.00;;;25.50;99.90;;;;;;8267682;28;20211;-67
2023/06/23 13:22:56;;;;;;;4.90;4.40;;;25.20;99.90;;;;;;8267103;28;20187;-66
2023/06/23 13:26:57;;;;;;;6.10;5.13;;;24.60;99.90;;;;;;8270267;28;20180;-65
2023/06/23 13:30:58;;;;;;;4.90;4.50;;;24.30;99.90;;;;;;8267925;28;20250;-70
2023/06/23 13:34:59;;;;;;;5.17;4.67;;;23.80;1.00;;;;;;8270670;28;20187;-69
2023/06/23 13:39:03;;;;;;;6.33;4.70;;;23.80;1.00;;;;;;8265404;28;20203;-69
2023/06/23 13:43:04;;;;;;;5.50;4.50;;;23.90;1.00;;;;;;8267501;28;20187;-69
2023/06/23 13:47:06;;;;;;;4.10;3.70;;;23.90;1.00;;;;;;8265964;28;20183;-68
2023/06/23 13:51:06;;;;;;;4.27;2.80;;;24.20;1.00;;;;;;8267605;28;20247;-69
2023/06/23 13:55:12;;;;;;;3.13;2.70;;;24.20;99.90;;;;;;8261836;28;20237;-68
2023/06/23 13:59:13;;;;;;;3.50;2.90;;;23.80;99.90;;;;;;8265139;28;20230;-68
2023/06/23 14:03:14;;;;;;;3.73;2.60;;;23.70;99.90;;;;;;8267645;28;20261;-68
2023/06/23 14:07:15;;;;;;;2.50;2.30;;;23.80;99.90;;;;;;8269585;28;20211;-69
2023/06/23 14:11:16;;;;;;;3.47;2.70;;;24.10;99.90;;;;;;8266824;28;20193;-71
2023/06/23 14:15:18;;;;;;;2.83;2.63;;;24.20;99.90;;;;;;8271984;28;20191;-70
2023/06/23 14:19:18;;;;;;;5.60;2.77;;;24.00;99.90;;;;;;8265032;28;20219;-70
2023/06/23 14:23:19;;;;;;;3.57;2.63;;;23.80;99.90;;;;;;8270947;28;20240;-69
2023/06/23 14:27:20;;;;;;;3.30;3.00;;;23.70;99.90;;;;;;8266258;28;20187;-68
2023/06/23 14:31:22;;;;;;;5.20;3.03;;;23.70;99.90;;;;;;8267347;28;20184;-67
2023/06/23 14:35:23;;;;;;;3.07;2.83;;;23.40;99.90;;;;;;8263212;28;20179;-69
2023/06/23 14:39:24;;;;;;;4.70;3.40;;;23.50;99.90;;;;;;8266833;28;20229;-70
2023/06/23 14:43:25;;;;;;;5.87;3.30;;;23.50;99.90;;;;;;8267837;28;20195;-70
2023/06/23 14:47:26;;;;;;;4.23;3.13;;;23.40;99.90;;;;;;8263554;28;20227;-68
2023/06/23 14:51:27;;;;;;;3.90;2.83;;;23.20;99.90;;;;;;8274252;28;20198;-69
2023/06/23 14:55:29;;;;;;;5.50;2.90;;;23.00;99.90;;;;;;8271820;28;20282;-67
2023/06/23 14:59:30;;;;;;;3.47;3.17;;;23.10;99.90;;;;;;8285360;28;20237;-68
2023/06/23 15:03:31;;;;;;;3.00;2.73;;;23.20;99.90;;;;;;8268143;28;20213;-68
2023/06/23 15:07:32;;;;;;;3.40;2.50;;;23.00;99.90;;;;;;8268835;28;20188;-68
2023/06/23 15:11:33;;;;;;;2.80;2.40;;;23.00;99.90;;;;;;8270641;28;20215;-69
2023/06/23 15:15:34;;;;;;;4.60;2.30;;;22.90;99.90;;;;;;8273293;28;20225;-69
2023/06/23 15:19:36;;;;;;;2.17;1.97;;;22.80;99.90;;;;;;8269355;28;20222;-68
2023/06/23 15:23:37;;;;;;;3.37;2.23;;;22.70;99.90;;;;;;8271597;28;20230;-68
2023/06/23 15:27:38;;;;;;;2.67;2.30;;;22.70;99.90;;;;;;8269731;28;20233;-70
2023/06/23 15:31:39;;;;;;;4.40;1.90;;;22.90;99.90;;;;;;8270010;28;20183;-69
2023/06/23 15:35:40;;;;;;;3.53;2.03;;;23.20;99.90;;;;;;8283253;28;20249;-69
2023/06/23 15:39:41;;;;;;;2.70;2.50;;;23.40;99.90;;;;;;8270351;28;20306;-69
2023/06/23 15:43:45;;;;;;;2.63;2.13;;;23.50;99.90;;;;;;8271443;28;20222;-68
2023/06/23 15:47:46;;;;;;;2.93;2.20;;;23.40;99.90;;;;;;8275938;28;20184;-68
2023/06/23 15:51:47;;;;;;;2.53;2.10;;;23.40;99.90;;;;;;8269859;28;20218;-67
2023/06/23 15:55:48;;;;;;;2.47;2.03;;;23.40;99.90;;;;;;8268404;28;20187;-66
2023/06/23 15:59:49;;;;;;;2.93;2.20;;;23.30;99.90;;;;;;8269395;28;20211;-69
2023/06/23 16:03:50;;;;;;;2.03;1.83;;;23.20;99.90;;;;;;8266589;28;20198;-69
2023/06/23 16:07:52;;;;;;;2.53;2.20;;;22.90;99.90;;;;;;8273016;28;20265;-67
2023/06/23 16:11:53;;;;;;;2.40;2.20;;;22.60;99.90;;;;;;8264584;28;20187;-68
2023/06/23 16:15:54;;;;;;;3.13;2.27;;;22.50;99.90;;;;;;8269002;28;20215;-67
2023/06/23 16:19:55;;;;;;;4.60;3.03;;;22.60;99.90;;;;;;8267846;28;20211;-69
2023/06/23 16:23:56;;;;;;;3.03;2.73;;;22.70;99.90;;;;;;8265379;28;20380;-69
2023/06/23 16:27:57;;;;;;;4.00;3.70;;;22.80;99.90;;;;;;8271384;28;20327;-68
2023/06/23 16:31:58;;;;;;;5.03;4.53;;;22.70;99.90;;;;;;8266391;28;20281;-68
2023/06/23 16:36:01;;;;;;;5.43;4.93;;;22.60;1.00;;;;;;8275646;28;20194;-66
2023/06/23 16:40:02;;;;;;;5.37;4.87;;;22.50;1.00;;;;;;8265721;28;20313;-69
2023/06/23 16:44:04;;;;;;;6.87;5.97;;;22.30;1.00;;;;;;8268280;28;20183;-69
2023/06/23 16:48:05;;;;;;;6.40;5.90;;;22.20;1.00;;;;;;8268390;28;20194;-68
2023/06/23 16:52:08;;;;;;;6.63;6.00;;;22.10;1.00;;;;;;8264647;28;20248;-67
2023/06/23 16:56:09;;;;;;;7.37;6.67;;;21.90;91.80;;;;;;8270590;28;20196;-68
2023/06/23 17:00:11;;;;;;;7.43;6.47;;;21.70;99.90;;;;;;8266848;28;20333;-67
2023/06/23 17:04:14;;;;;;;8.13;6.40;;;21.60;99.90;;;;;;8270784;28;20207;-67
2023/06/23 17:08:15;;;;;;;6.60;6.00;;;21.50;99.90;;;;;;8267481;28;20282;-68
2023/06/23 17:12:15;;;;;;;6.77;5.83;;;21.40;99.90;;;;;;8264923;28;20204;-68
2023/06/23 17:16:17;;;;;;;6.10;5.60;;;21.30;99.90;;;;;;8278630;28;20234;-68
2023/06/23 17:20:19;;;;;;;6.87;6.20;;;21.20;99.90;;;;;;8264506;28;20212;-68
2023/06/23 17:24:20;;;;;;;6.43;5.83;;;21.20;99.90;;;;;;8263036;28;20191;-68
2023/06/23 17:28:21;;;;;;;6.40;5.87;;;21.10;99.90;;;;;;8264503;28;20179;-69
2023/06/23 17:32:22;;;;;;;5.10;4.60;;;21.00;1.00;;;;;;8265281;28;20187;-71
2023/06/23 17:36:23;;;;;;;3.00;2.80;;;20.80;99.90;;;;;;8265087;28;20278;-70
2023/06/23 17:40:27;;;;;;;3.93;2.10;;;20.60;1.00;;;;;;8264137;28;20227;-69
2023/06/23 17:44:28;;;;;;;2.23;1.97;;;20.40;3.70;;;;;;8265550;28;20195;-68
2023/06/23 17:48:29;;;;;;;3.07;2.07;;;20.30;1.00;;;;;;8279715;28;20199;-68
2023/06/23 17:52:30;;;;;;;4.27;2.57;;;20.10;99.90;;;;;;8268978;28;20206;-67
2023/06/23 17:56:31;;;;;;;4.80;3.23;;;19.80;16.70;;;;;;8268204;28;20226;-69
2023/06/23 18:00:32;;;;;;;5.27;2.80;;;19.60;99.90;;;;;;8273455;28;20226;-67
2023/06/23 18:04:34;;;;;;;2.80;2.60;;;19.30;99.90;;;;;;8269252;28;20215;-68
2023/06/23 18:08:35;;;;;;;4.63;2.97;;;19.10;99.90;;;;;;8264198;28;20187;-65
2023/06/23 18:12:36;;;;;;;3.80;2.80;;;18.90;99.90;;;;;;8265006;28;20199;-67
2023/06/23 18:16:37;;;;;;;3.10;2.80;;;18.80;97.90;;;;;;8264036;28;20191;-67
2023/06/23 18:20:38;;;;;;;3.87;3.43;;;18.70;1.00;;;;;;8264869;28;20303;-68
2023/06/23 18:24:39;;;;;;;4.83;3.37;;;18.60;99.90;;;;;;8262170;28;20210;-68
2023/06/23 18:28:41;;;;;;;3.50;3.20;;;18.50;1.00;;;;;;8265336;28;20268;-65
2023/06/23 18:36:43;;;;;;;3.97;3.23;;;18.40;99.90;;;;;;8261986;28;20199;-66
2023/06/23 18:40:44;;;;;;;3.13;2.93;;;18.40;99.90;;;;;;8262481;28;20217;-66
2023/06/23 18:44:46;;;;;;;3.00;2.80;;;18.40;99.90;;;;;;8267364;28;20203;-66
2023/06/23 18:48:48;;;;;;;3.30;3.00;;;18.40;99.90;;;;;;8266424;28;20187;-67
2023/06/23 18:52:49;;;;;;;3.30;3.10;;;18.30;99.90;;;;;;8261405;28;20191;-67
2023/06/23 18:56:50;;;;;;;3.13;2.83;;;18.30;99.90;;;;;;8268266;28;20194;-67
2023/06/23 19:00:57;;;;;;;3.03;2.50;;;18.30;99.90;;;;;;8264460;28;20226;-67
2023/06/23 19:05:00;;;;;;;3.63;2.70;;;18.40;99.90;;;;;;8265687;28;20204;-67
2023/06/23 19:09:02;;;;;;;2.77;2.57;;;18.40;99.90;;;;;;8264143;28;20211;-68
2023/06/23 19:13:06;;;;;;;2.70;2.50;;;18.40;99.90;;;;;;8267870;28;20188;-67
2023/06/23 19:17:14;;;;;;;2.73;2.53;;;18.40;99.90;;;;;;8264458;28;20195;-70
2023/06/23 19:21:15;;;;;;;2.67;2.30;;;18.40;99.90;;;;;;8265516;28;20230;-70
2023/06/23 19:25:16;;;;;;;2.50;2.20;;;18.50;99.90;;;;;;8267338;28;20247;-71
2023/06/23 19:29:17;;;;;;;2.83;2.63;;;18.50;99.90;;;;;;8265935;28;20194;-69
2023/06/23 19:33:18;;;;;;;3.07;2.70;;;18.50;99.90;;;;;;8261658;28;20187;-70
2023/06/23 19:37:20;;;;;;;3.10;2.87;;;18.50;26.90;;;;;;8262660;28;20235;-70
2023/06/23 19:41:21;;;;;;;4.10;3.47;;;18.30;14.80;;;;;;8269992;28;20295;-72
2023/06/23 19:45:24;;;;;;;3.77;3.37;;;18.20;99.90;;;;;;8268333;28;20271;-70
2023/06/23 19:49:26;;;;;;;3.03;2.83;;;18.20;99.90;;;;;;8270761;28;20269;-71
2023/06/23 19:53:30;;;;;;;2.87;2.63;;;18.10;99.90;;;;;;8268591;28;20195;-71
2023/06/23 19:57:31;;;;;;;3.13;2.87;;;18.10;99.90;;;;;;8268944;28;20204;-70
2023/06/23 20:01:32;;;;;;;3.30;3.00;;;18.10;99.90;;;;;;8270974;28;20220;-71
2023/06/23 20:05:35;;;;;;;3.40;3.10;;;18.00;99.90;;;;;;8268274;28;20218;-72
2023/06/23 20:09:39;;;;;;;3.70;3.40;;;17.90;99.90;;;;;;8269481;28;20195;-72
2023/06/23 20:13:40;;;;;;;3.80;3.50;;;17.90;99.90;;;;;;8267231;28;20201;-72
2023/06/23 20:17:41;;;;;;;4.63;3.60;;;17.90;99.90;;;;;;8273956;28;20241;-72
2023/06/23 20:21:43;;;;;;;4.80;3.90;;;17.80;99.90;;;;;;8267647;28;20183;-73
2023/06/23 20:25:44;;;;;;;3.70;3.40;;;17.70;99.90;;;;;;8272374;28;20209;-75
2023/06/23 20:29:45;;;;;;;4.53;4.20;;;17.70;99.90;;;;;;8271830;28;20268;-74
2023/06/23 20:33:46;;;;;;;4.73;4.30;;;17.60;99.90;;;;;;8266295;28;20195;-74
2023/06/23 20:37:47;;;;;;;5.20;4.20;;;17.60;99.90;;;;;;8270653;28;20234;-73
2023/06/23 20:41:48;;;;;;;5.70;4.70;;;17.60;99.90;;;;;;8271290;28;20202;-74
2023/06/23 20:45:50;;;;;;;5.83;5.30;;;17.60;99.90;;;;;;8270607;28;20241;-74
2023/06/23 20:49:51;;;;;;;5.03;4.60;;;17.60;99.90;;;;;;8265919;28;20217;-71
2023/06/23 20:53:52;;;;;;;5.40;5.00;;;17.60;99.90;;;;;;8273611;28;20188;-75
2023/06/23 20:57:59;;;;;;;5.00;4.00;;;17.60;99.90;;;;;;8267985;28;20242;-69
2023/06/23 21:02:00;;;;;;;3.80;3.50;;;17.60;99.90;;;;;;8284577;28;20246;-70
2023/06/23 21:06:01;;;;;;;3.80;3.50;;;17.60;99.90;;;;;;8268315;28;20231;-70
2023/06/23 21:10:02;;;;;;;4.10;3.43;;;17.60;99.90;;;;;;8278639;28;20187;-73
2023/06/23 21:14:03;;;;;;;4.23;3.17;;;17.50;99.90;;;;;;8262798;28;20271;-67
2023/06/23 21:18:05;;;;;;;3.90;2.87;;;17.50;99.90;;;;;;8267779;28;20234;-70
2023/06/23 21:22:06;;;;;;;3.17;2.50;;;17.40;99.90;;;;;;8265899;28;20198;-72
2023/06/23 21:26:07;;;;;;;2.77;2.53;;;17.30;99.90;;;;;;8262908;28;20233;-73
2023/06/23 21:30:08;;;;;;;2.70;2.50;;;17.20;99.90;;;;;;8265636;28;20188;-68